createdAt,value
2023-06-28T00:01:38.485Z,101038.25
2023-06-28T00:06:41.769Z,101038.25
2023-06-28T00:11:45.102Z,101039.13
2023-06-28T00:16:46.821Z,101039.09
2023-06-28T00:21:50.416Z,101045.28
2023-06-28T00:26:52.241Z,101050.56
2023-06-28T00:31:54.033Z,101044.50
2023-06-28T00:36:57.148Z,101043.66
2023-06-28T00:41:58.865Z,101048.06
2023-06-28T00:47:00.679Z,101052.50
2023-06-28T00:52:04.338Z,101055.13
2023-06-28T00:57:07.150Z,101053.38
2023-06-28T01:02:08.925Z,101067.44
2023-06-28T01:07:12.586Z,101056.06
2023-06-28T01:12:14.349Z,101056.13
2023-06-28T01:17:16.095Z,101049.09
2023-06-28T01:22:19.247Z,101057.94
2023-06-28T01:27:22.337Z,101067.63
2023-06-28T01:32:25.058Z,101070.28
2023-06-28T01:37:26.965Z,101067.69
2023-06-28T01:42:30.032Z,101071.22
2023-06-28T01:47:31.957Z,101073.03
2023-06-28T01:52:34.236Z,101073.03
2023-06-28T01:57:37.395Z,101079.19
2023-06-28T02:02:39.195Z,101073.94
2023-06-28T02:07:41.028Z,101077.50
2023-06-28T02:12:45.928Z,101075.75
2023-06-28T02:17:49.053Z,101072.25
2023-06-28T02:22:50.873Z,101070.50
2023-06-28T02:27:54.613Z,101073.19
2023-06-28T02:32:56.406Z,101070.53
2023-06-28T02:37:58.204Z,101069.66
2023-06-28T02:43:01.374Z,101073.19
2023-06-28T02:48:03.998Z,101072.31
2023-06-28T02:53:05.883Z,101085.44
2023-06-28T02:58:09.141Z,101082.81
2023-06-28T03:03:11.442Z,101077.56
2023-06-28T03:08:16.787Z,101079.28
2023-06-28T03:13:20.028Z,101082.78
2023-06-28T03:18:21.889Z,101088.06
2023-06-28T03:23:23.689Z,101089.81
2023-06-28T03:28:26.993Z,101088.09
2023-06-28T03:33:28.791Z,101084.56
2023-06-28T03:38:30.569Z,101090.72
2023-06-28T03:43:33.736Z,101089.84
2023-06-28T03:48:35.880Z,101084.63
2023-06-28T03:53:38.917Z,101086.38
2023-06-28T03:58:42.069Z,101083.72
2023-06-28T04:03:44.357Z,101088.06
2023-06-28T04:08:47.544Z,101088.91
2023-06-28T04:13:50.650Z,101085.41
2023-06-28T04:18:53.861Z,101086.19
2023-06-28T04:23:55.605Z,101086.19
2023-06-28T04:28:58.731Z,101099.34
2023-06-28T04:34:00.820Z,101091.44
2023-06-28T04:39:04.675Z,101088.72
2023-06-28T04:44:10.747Z,101092.19
2023-06-28T04:49:12.471Z,101090.34
2023-06-28T04:54:14.478Z,101094.66
2023-06-28T04:59:17.603Z,101085.88
2023-06-28T05:04:19.445Z,101089.19
2023-06-28T05:09:21.155Z,101084.75
2023-06-28T05:14:24.290Z,101085.56
2023-06-28T05:19:26.240Z,101087.31
2023-06-28T05:24:27.958Z,101085.47
2023-06-28T05:29:32.356Z,101087.13
2023-06-28T05:34:34.762Z,101081.72
2023-06-28T05:39:36.506Z,101085.09
2023-06-28T05:44:39.550Z,101084.06
2023-06-28T05:49:43.192Z,101082.97
2023-06-28T05:54:44.938Z,101078.50
2023-06-28T05:59:48.041Z,101082.69
2023-06-28T06:04:49.803Z,101080.78
2023-06-28T06:09:51.535Z,101080.56
2023-06-28T06:14:57.843Z,101085.69
2023-06-28T06:19:59.631Z,101085.63
2023-06-28T06:25:01.693Z,101092.56
2023-06-28T06:30:06.517Z,101085.50
2023-06-28T06:35:09.066Z,101089.72
2023-06-28T06:40:10.858Z,101085.88
2023-06-28T06:45:18.263Z,101087.44
2023-06-28T06:50:20.057Z,101092.66
2023-06-28T06:55:21.771Z,101097.78
2023-06-28T07:00:24.954Z,101102.09
2023-06-28T07:05:26.722Z,101101.94
2023-06-28T07:10:28.550Z,101105.94
2023-06-28T07:15:31.618Z,101113.59
2023-06-28T07:20:33.452Z,101118.47
2023-06-28T07:25:35.577Z,101119.31
2023-06-28T07:30:54.531Z,101123.53
2023-06-28T07:35:56.298Z,101124.41
2023-06-28T07:40:58.042Z,101118.25
2023-06-28T07:46:02.094Z,101121.75
2023-06-28T07:51:06.680Z,101116.72
2023-06-28T07:56:08.467Z,101115.13
2023-06-28T08:01:11.685Z,101112.72
2023-06-28T08:06:13.507Z,101113.69
2023-06-28T08:11:15.226Z,101104.00
2023-06-28T08:16:18.669Z,101107.19
2023-06-28T08:21:20.444Z,101110.59
2023-06-28T08:26:22.230Z,101110.47
2023-06-28T08:31:25.366Z,101112.59
2023-06-28T08:36:28.865Z,101115.56
2023-06-28T08:41:31.747Z,101108.19
2023-06-28T08:46:34.867Z,101102.97
2023-06-28T08:51:37.728Z,101109.88
2023-06-28T08:56:48.253Z,101103.63
2023-06-28T09:01:57.351Z,101109.13
2023-06-28T09:06:59.260Z,101094.78
2023-06-28T09:12:01.093Z,101095.00
2023-06-28T09:17:04.482Z,101096.59
2023-06-28T09:22:06.361Z,101097.47
2023-06-28T09:27:08.547Z,101088.50
2023-06-28T09:32:11.897Z,101092.22
2023-06-28T09:37:13.673Z,101106.13
2023-06-28T09:42:15.418Z,101084.56
2023-06-28T09:47:18.490Z,101091.38
2023-06-28T09:52:20.221Z,101084.56
2023-06-28T09:57:21.955Z,101083.50
2023-06-28T10:02:25.129Z,101082.63
2023-06-28T10:07:26.928Z,101085.47
2023-06-28T10:12:28.703Z,101088.50
2023-06-28T10:17:35.222Z,101074.44
2023-06-28T10:22:36.964Z,101081.88
2023-06-28T10:27:39.101Z,101089.28
2023-06-28T10:32:42.942Z,101080.00
2023-06-28T10:37:44.722Z,101076.88
2023-06-28T10:42:46.615Z,101082.47
2023-06-28T10:47:55.295Z,101085.22
2023-06-28T10:52:57.709Z,101078.00
2023-06-28T10:58:06.506Z,101072.53
2023-06-28T11:03:09.708Z,101069.50
2023-06-28T11:08:12.094Z,101069.72
2023-06-28T11:13:14.559Z,101075.66
2023-06-28T11:18:19.929Z,101069.56
2023-06-28T11:23:25.760Z,101062.97
2023-06-28T11:28:29.550Z,101067.56
2023-06-28T11:33:33.032Z,101053.97
2023-06-28T11:38:34.939Z,101052.88
2023-06-28T11:43:36.652Z,101061.75
2023-06-28T11:48:39.745Z,101059.09
2023-06-28T11:53:41.487Z,101050.53
2023-06-28T11:58:43.239Z,101058.03
2023-06-28T12:03:46.359Z,101048.28
2023-06-28T12:08:48.170Z,101040.25
2023-06-28T12:13:49.908Z,101046.03
2023-06-28T12:19:00.063Z,101049.91
2023-06-28T12:24:14.937Z,101041.16
2023-06-28T12:29:18.287Z,101046.53
2023-06-28T12:34:24.930Z,101049.88
2023-06-28T12:39:27.808Z,101050.16
2023-06-28T12:44:29.723Z,101045.09
2023-06-28T12:49:38.948Z,101044.31
2023-06-28T12:54:40.672Z,101043.75
2023-06-28T12:59:42.544Z,101041.19
2023-06-28T13:04:45.676Z,101045.06
2023-06-28T13:09:47.461Z,101040.22
2023-06-28T13:14:49.169Z,101044.41
2023-06-28T13:19:52.817Z,101040.91
2023-06-28T13:24:54.736Z,101041.28
2023-06-28T13:29:56.506Z,101039.28
2023-06-28T13:34:59.647Z,101040.22
2023-06-28T13:40:03.527Z,101041.66
2023-06-28T13:45:06.936Z,101033.16
2023-06-28T13:50:10.680Z,101038.69
2023-06-28T13:55:12.466Z,101038.47
2023-06-28T14:00:14.877Z,101038.53
2023-06-28T14:05:19.303Z,101043.16
2023-06-28T14:10:22.734Z,101036.09
2023-06-28T14:15:24.526Z,101032.16
2023-06-28T14:20:27.722Z,101034.44
2023-06-28T14:25:29.464Z,101038.97
2023-06-28T14:30:31.293Z,101030.47
2023-06-28T14:35:34.398Z,101024.09
2023-06-28T14:40:36.120Z,101029.88
2023-06-28T14:45:37.942Z,101029.53
2023-06-28T14:50:41.065Z,101018.13
2023-06-28T14:55:43.156Z,101024.41
2023-06-28T15:00:45.666Z,101025.81
2023-06-28T15:05:49.361Z,101020.66
2023-06-28T15:10:51.079Z,101024.31
2023-06-28T15:15:52.935Z,101016.09
2023-06-28T15:20:56.137Z,101022.91
2023-06-28T15:25:58.202Z,101022.19
2023-06-28T15:30:59.993Z,101013.31
2023-06-28T15:36:03.134Z,101013.03
2023-06-28T15:41:04.830Z,101012.81
2023-06-28T15:46:06.615Z,101011.28
2023-06-28T15:51:09.681Z,101010.13
2023-06-28T15:56:11.392Z,101008.34
2023-06-28T16:01:14.509Z,101010.69
2023-06-28T16:06:17.639Z,101003.59
2023-06-28T16:11:19.420Z,101004.41
2023-06-28T16:16:21.188Z,100993.28
2023-06-28T16:21:24.307Z,101001.28
2023-06-28T16:26:26.021Z,101005.25
2023-06-28T16:31:29.892Z,101006.69
2023-06-28T16:36:33.162Z,100995.31
2023-06-28T16:41:34.967Z,101007.03
2023-06-28T16:46:36.865Z,101005.16
2023-06-28T16:51:39.933Z,101000.09
2023-06-28T16:56:41.683Z,101007.47
2023-06-28T17:01:43.411Z,101004.19
2023-06-28T17:06:46.479Z,101015.22
2023-06-28T17:11:48.369Z,101017.81
2023-06-28T17:16:50.075Z,101018.59
2023-06-28T17:21:53.178Z,101023.81
2023-06-28T17:26:58.474Z,101023.97
2023-06-28T17:32:00.522Z,101025.63
2023-06-28T17:37:04.094Z,101027.56
2023-06-28T17:42:06.392Z,101017.81
2023-06-28T17:47:08.601Z,101016.03
2023-06-28T17:52:11.864Z,101013.56
2023-06-28T17:57:13.624Z,101016.22
2023-06-28T18:02:17.601Z,101018.00
2023-06-28T18:07:21.528Z,101016.06
2023-06-28T18:12:24.014Z,101018.72
2023-06-28T18:17:25.833Z,101022.63
2023-06-28T18:22:28.976Z,101019.19
2023-06-28T18:27:30.784Z,101029.81
2023-06-28T18:32:32.571Z,101029.28
2023-06-28T18:37:35.771Z,101030.22
2023-06-28T18:42:37.524Z,101030.38
2023-06-28T18:47:39.393Z,101024.22
2023-06-28T18:52:42.533Z,101027.03
2023-06-28T18:57:44.247Z,101021.91
2023-06-28T19:02:46.020Z,101026.69
2023-06-28T19:07:49.121Z,101027.97
2023-06-28T19:12:50.922Z,101022.78
2023-06-28T19:17:54.042Z,101017.75
2023-06-28T19:22:57.173Z,101016.31
2023-06-28T19:27:59.048Z,101029.19
2023-06-28T19:33:00.825Z,101036.19
2023-06-28T19:38:04.330Z,101038.75
2023-06-28T19:43:06.104Z,101034.72
2023-06-28T19:48:07.892Z,101041.00
2023-06-28T19:53:11.804Z,101036.81
2023-06-28T19:58:13.778Z,101040.59
2023-06-28T20:03:15.620Z,101047.84
2023-06-28T20:08:18.804Z,101041.22
2023-06-28T20:13:20.904Z,101041.09
2023-06-28T20:18:22.741Z,101043.88
2023-06-28T20:23:25.949Z,101053.19
2023-06-28T20:28:27.720Z,101051.09
2023-06-28T20:33:29.484Z,101047.88
2023-06-28T20:38:33.142Z,101054.09
2023-06-28T20:43:38.375Z,101055.81
2023-06-28T20:48:42.212Z,101061.88
2023-06-28T20:53:47.695Z,101053.06
2023-06-28T20:58:51.488Z,101045.31
2023-06-28T21:03:55.123Z,101049.38
2023-06-28T21:09:00.135Z,101044.09
2023-06-28T21:14:03.116Z,101055.03
2023-06-28T21:19:04.906Z,101051.66
2023-06-28T21:24:08.390Z,101046.56
2023-06-28T21:29:10.212Z,101058.13
2023-06-28T21:34:11.967Z,101046.66
2023-06-28T21:39:15.080Z,101052.94
2023-06-28T21:44:16.899Z,101046.09
2023-06-28T21:49:18.651Z,101048.88
2023-06-28T21:54:21.829Z,101049.56
2023-06-28T21:59:26.639Z,101048.75
2023-06-28T22:04:28.468Z,101053.19
2023-06-28T22:09:31.717Z,101039.22
2023-06-28T22:14:33.631Z,101043.06
2023-06-28T22:19:36.303Z,101052.84
2023-06-28T22:24:39.489Z,101060.97
2023-06-28T22:29:41.254Z,101058.38
2023-06-28T22:34:43.051Z,101051.25
2023-06-28T22:39:46.363Z,101048.56
2023-06-28T22:44:48.285Z,101050.25
2023-06-28T22:49:50.047Z,101052.03
2023-06-28T22:54:54.065Z,101051.84
2023-06-28T22:59:55.809Z,101044.66
2023-06-28T23:04:57.656Z,101045.28
2023-06-28T23:10:00.959Z,101048.66
2023-06-28T23:15:02.783Z,101040.91
2023-06-28T23:20:06.664Z,101035.91
2023-06-28T23:25:14.228Z,101040.03
2023-06-28T23:30:17.361Z,101032.97
2023-06-28T23:35:19.177Z,101036.47
2023-06-28T23:40:22.429Z,101031.22
2023-06-28T23:45:24.330Z,101029.16
2023-06-28T23:50:27.233Z,101038.72
2023-06-28T23:55:30.467Z,101023.56
